sensor_id;sensor_type;location;lat;lon;timestamp;P1;durP1;ratioP1;P2;durP2;ratioP2
76818;SDS011;65772;51.096;17.006;2023-03-31T00:01:36;6.10;;;2.20;;
76818;SDS011;65772;51.096;17.006;2023-03-31T00:04:09;3.90;;;1.90;;
76818;SDS011;65772;51.096;17.006;2023-03-31T00:06:41;5.30;;;2.00;;
76818;SDS011;65772;51.096;17.006;2023-03-31T00:09:12;4.70;;;1.80;;
76818;SDS011;65772;51.096;17.006;2023-03-31T00:11:45;4.80;;;2.30;;
76818;SDS011;65772;51.096;17.006;2023-03-31T00:14:17;5.30;;;2.20;;
76818;SDS011;65772;51.096;17.006;2023-03-31T00:16:48;5.30;;;2.00;;
76818;SDS011;65772;51.096;17.006;2023-03-31T00:19:19;5.10;;;2.40;;
76818;SDS011;65772;51.096;17.006;2023-03-31T00:21:50;7.10;;;2.30;;
76818;SDS011;65772;51.096;17.006;2023-03-31T00:24:21;5.20;;;2.10;;
76818;SDS011;65772;51.096;17.006;2023-03-31T00:26:51;5.70;;;2.30;;
76818;SDS011;65772;51.096;17.006;2023-03-31T00:29:22;4.60;;;2.50;;
76818;SDS011;65772;51.096;17.006;2023-03-31T00:31:52;6.00;;;2.30;;
76818;SDS011;65772;51.096;17.006;2023-03-31T00:34:23;8.00;;;2.50;;
76818;SDS011;65772;51.096;17.006;2023-03-31T00:36:54;7.10;;;2.50;;
76818;SDS011;65772;51.096;17.006;2023-03-31T00:39:29;4.10;;;2.10;;
76818;SDS011;65772;51.096;17.006;2023-03-31T00:42:02;5.80;;;2.40;;
76818;SDS011;65772;51.096;17.006;2023-03-31T00:44:35;4.90;;;2.10;;
76818;SDS011;65772;51.096;17.006;2023-03-31T00:47:29;5.30;;;2.40;;
76818;SDS011;65772;51.096;17.006;2023-03-31T00:50:00;5.00;;;2.30;;
76818;SDS011;65772;51.096;17.006;2023-03-31T00:52:32;8.00;;;2.70;;
76818;SDS011;65772;51.096;17.006;2023-03-31T00:55:06;4.10;;;2.00;;
76818;SDS011;65772;51.096;17.006;2023-03-31T00:57:43;6.00;;;2.40;;
76818;SDS011;65772;51.096;17.006;2023-03-31T01:00:16;5.40;;;2.20;;
76818;SDS011;65772;51.096;17.006;2023-03-31T01:02:49;6.30;;;2.30;;
76818;SDS011;65772;51.096;17.006;2023-03-31T01:05:23;6.00;;;2.50;;
76818;SDS011;65772;51.096;17.006;2023-03-31T01:07:57;9.00;;;2.50;;
76818;SDS011;65772;51.096;17.006;2023-03-31T01:10:30;6.20;;;2.30;;
76818;SDS011;65772;51.096;17.006;2023-03-31T01:13:08;7.20;;;2.90;;
76818;SDS011;65772;51.096;17.006;2023-03-31T01:15:42;5.90;;;2.60;;
76818;SDS011;65772;51.096;17.006;2023-03-31T01:18:13;6.50;;;2.90;;
76818;SDS011;65772;51.096;17.006;2023-03-31T01:21:02;7.30;;;3.00;;
76818;SDS011;65772;51.096;17.006;2023-03-31T01:24:05;8.80;;;3.20;;
76818;SDS011;65772;51.096;17.006;2023-03-31T01:27:02;5.20;;;2.80;;
76818;SDS011;65772;51.096;17.006;2023-03-31T01:30:01;8.10;;;3.10;;
76818;SDS011;65772;51.096;17.006;2023-03-31T01:33:00;6.00;;;2.80;;
76818;SDS011;65772;51.096;17.006;2023-03-31T01:35:53;7.20;;;2.70;;
76818;SDS011;65772;51.096;17.006;2023-03-31T01:38:42;7.00;;;2.90;;
76818;SDS011;65772;51.096;17.006;2023-03-31T01:41:35;9.00;;;3.20;;
76818;SDS011;65772;51.096;17.006;2023-03-31T01:44:16;7.30;;;3.20;;
76818;SDS011;65772;51.096;17.006;2023-03-31T01:46:57;6.70;;;3.40;;
76818;SDS011;65772;51.096;17.006;2023-03-31T01:49:36;8.10;;;3.70;;
76818;SDS011;65772;51.096;17.006;2023-03-31T01:52:14;9.40;;;3.90;;
76818;SDS011;65772;51.096;17.006;2023-03-31T01:54:52;8.00;;;3.70;;
76818;SDS011;65772;51.096;17.006;2023-03-31T01:57:30;6.70;;;3.50;;
76818;SDS011;65772;51.096;17.006;2023-03-31T02:00:03;9.50;;;3.60;;
76818;SDS011;65772;51.096;17.006;2023-03-31T02:02:43;8.00;;;3.80;;
76818;SDS011;65772;51.096;17.006;2023-03-31T02:05:18;8.10;;;4.20;;
76818;SDS011;65772;51.096;17.006;2023-03-31T02:07:53;8.60;;;4.40;;
76818;SDS011;65772;51.096;17.006;2023-03-31T02:10:28;7.80;;;3.80;;
76818;SDS011;65772;51.096;17.006;2023-03-31T02:13:02;8.60;;;4.30;;
76818;SDS011;65772;51.096;17.006;2023-03-31T02:15:36;10.00;;;4.60;;
76818;SDS011;65772;51.096;17.006;2023-03-31T02:18:12;7.20;;;4.20;;
76818;SDS011;65772;51.096;17.006;2023-03-31T02:20:47;7.80;;;4.10;;
76818;SDS011;65772;51.096;17.006;2023-03-31T02:23:21;7.90;;;4.50;;
76818;SDS011;65772;51.096;17.006;2023-03-31T02:25:58;7.30;;;4.60;;
76818;SDS011;65772;51.096;17.006;2023-03-31T02:28:31;8.70;;;4.20;;
76818;SDS011;65772;51.096;17.006;2023-03-31T02:31:05;8.20;;;4.40;;
76818;SDS011;65772;51.096;17.006;2023-03-31T02:33:49;6.50;;;4.10;;
76818;SDS011;65772;51.096;17.006;2023-03-31T02:36:20;8.10;;;4.60;;
76818;SDS011;65772;51.096;17.006;2023-03-31T02:38:52;8.80;;;4.60;;
76818;SDS011;65772;51.096;17.006;2023-03-31T02:41:27;11.00;;;4.70;;
76818;SDS011;65772;51.096;17.006;2023-03-31T02:43:57;7.90;;;4.20;;
76818;SDS011;65772;51.096;17.006;2023-03-31T02:46:28;9.40;;;4.90;;
76818;SDS011;65772;51.096;17.006;2023-03-31T02:57:57;8.10;;;4.90;;
76818;SDS011;65772;51.096;17.006;2023-03-31T03:00:46;9.30;;;4.90;;
76818;SDS011;65772;51.096;17.006;2023-03-31T03:03:30;7.30;;;4.70;;
76818;SDS011;65772;51.096;17.006;2023-03-31T03:06:15;8.30;;;4.60;;
76818;SDS011;65772;51.096;17.006;2023-03-31T03:09:03;8.30;;;5.20;;
76818;SDS011;65772;51.096;17.006;2023-03-31T03:11:41;9.30;;;5.90;;
76818;SDS011;65772;51.096;17.006;2023-03-31T03:14:21;8.70;;;5.80;;
76818;SDS011;65772;51.096;17.006;2023-03-31T03:17:00;11.10;;;6.40;;
76818;SDS011;65772;51.096;17.006;2023-03-31T03:19:34;15.30;;;10.90;;
76818;SDS011;65772;51.096;17.006;2023-03-31T03:22:04;19.30;;;14.80;;
76818;SDS011;65772;51.096;17.006;2023-03-31T03:24:36;21.50;;;17.90;;
76818;SDS011;65772;51.096;17.006;2023-03-31T03:27:06;24.00;;;21.00;;
76818;SDS011;65772;51.096;17.006;2023-03-31T03:29:37;23.70;;;18.60;;
76818;SDS011;65772;51.096;17.006;2023-03-31T03:32:09;18.70;;;14.80;;
76818;SDS011;65772;51.096;17.006;2023-03-31T03:34:39;16.90;;;12.10;;
76818;SDS011;65772;51.096;17.006;2023-03-31T03:37:10;10.70;;;8.20;;
76818;SDS011;65772;51.096;17.006;2023-03-31T03:39:40;12.20;;;7.60;;
76818;SDS011;65772;51.096;17.006;2023-03-31T03:42:11;8.00;;;5.90;;
76818;SDS011;65772;51.096;17.006;2023-03-31T03:44:42;8.00;;;5.60;;
76818;SDS011;65772;51.096;17.006;2023-03-31T03:47:13;8.50;;;4.80;;
76818;SDS011;65772;51.096;17.006;2023-03-31T03:49:44;8.90;;;5.00;;
76818;SDS011;65772;51.096;17.006;2023-03-31T03:52:15;6.70;;;4.50;;
76818;SDS011;65772;51.096;17.006;2023-03-31T03:54:47;6.30;;;4.00;;
76818;SDS011;65772;51.096;17.006;2023-03-31T03:57:17;8.70;;;4.10;;
76818;SDS011;65772;51.096;17.006;2023-03-31T03:59:48;7.50;;;4.00;;
76818;SDS011;65772;51.096;17.006;2023-03-31T04:02:18;9.30;;;4.20;;
76818;SDS011;65772;51.096;17.006;2023-03-31T04:04:50;7.60;;;3.70;;
76818;SDS011;65772;51.096;17.006;2023-03-31T04:07:21;8.00;;;4.00;;
76818;SDS011;65772;51.096;17.006;2023-03-31T04:09:51;6.50;;;3.80;;
76818;SDS011;65772;51.096;17.006;2023-03-31T04:12:22;7.10;;;4.30;;
76818;SDS011;65772;51.096;17.006;2023-03-31T04:14:53;6.30;;;3.70;;
76818;SDS011;65772;51.096;17.006;2023-03-31T04:17:23;7.10;;;3.50;;
76818;SDS011;65772;51.096;17.006;2023-03-31T04:20:00;8.20;;;3.90;;
76818;SDS011;65772;51.096;17.006;2023-03-31T04:22:34;8.30;;;4.10;;
76818;SDS011;65772;51.096;17.006;2023-03-31T04:25:09;8.30;;;4.50;;
76818;SDS011;65772;51.096;17.006;2023-03-31T04:27:43;7.80;;;4.30;;
76818;SDS011;65772;51.096;17.006;2023-03-31T04:30:17;7.10;;;4.00;;
76818;SDS011;65772;51.096;17.006;2023-03-31T04:32:51;10.30;;;4.10;;
76818;SDS011;65772;51.096;17.006;2023-03-31T04:35:23;8.10;;;4.50;;
76818;SDS011;65772;51.096;17.006;2023-03-31T04:38:16;7.90;;;4.10;;
76818;SDS011;65772;51.096;17.006;2023-03-31T04:40:48;6.80;;;3.90;;
76818;SDS011;65772;51.096;17.006;2023-03-31T04:43:20;6.40;;;4.00;;
76818;SDS011;65772;51.096;17.006;2023-03-31T04:45:51;8.40;;;3.90;;
76818;SDS011;65772;51.096;17.006;2023-03-31T04:48:21;6.80;;;3.40;;
76818;SDS011;65772;51.096;17.006;2023-03-31T04:50:52;6.10;;;3.70;;
76818;SDS011;65772;51.096;17.006;2023-03-31T04:53:22;7.10;;;3.80;;
76818;SDS011;65772;51.096;17.006;2023-03-31T04:55:53;7.10;;;3.90;;
76818;SDS011;65772;51.096;17.006;2023-03-31T04:58:24;8.00;;;3.70;;
76818;SDS011;65772;51.096;17.006;2023-03-31T05:00:56;7.20;;;3.90;;
76818;SDS011;65772;51.096;17.006;2023-03-31T05:03:26;9.60;;;4.20;;
76818;SDS011;65772;51.096;17.006;2023-03-31T05:05:57;8.90;;;4.00;;
76818;SDS011;65772;51.096;17.006;2023-03-31T05:08:28;7.00;;;4.00;;
76818;SDS011;65772;51.096;17.006;2023-03-31T05:11:00;8.30;;;4.00;;
76818;SDS011;65772;51.096;17.006;2023-03-31T05:13:32;6.10;;;4.20;;
76818;SDS011;65772;51.096;17.006;2023-03-31T05:16:07;9.70;;;4.10;;
76818;SDS011;65772;51.096;17.006;2023-03-31T05:18:41;7.90;;;3.90;;
76818;SDS011;65772;51.096;17.006;2023-03-31T05:21:13;7.20;;;4.00;;
76818;SDS011;65772;51.096;17.006;2023-03-31T05:23:46;8.10;;;4.80;;
76818;SDS011;65772;51.096;17.006;2023-03-31T05:26:17;8.40;;;4.70;;
76818;SDS011;65772;51.096;17.006;2023-03-31T05:28:49;7.90;;;4.40;;
76818;SDS011;65772;51.096;17.006;2023-03-31T05:31:20;9.00;;;4.80;;
76818;SDS011;65772;51.096;17.006;2023-03-31T05:33:51;8.80;;;4.40;;
76818;SDS011;65772;51.096;17.006;2023-03-31T05:36:22;7.90;;;4.40;;
76818;SDS011;65772;51.096;17.006;2023-03-31T05:38:54;6.40;;;3.90;;
76818;SDS011;65772;51.096;17.006;2023-03-31T05:41:24;7.00;;;4.20;;
76818;SDS011;65772;51.096;17.006;2023-03-31T05:43:55;8.40;;;4.40;;
76818;SDS011;65772;51.096;17.006;2023-03-31T05:46:26;8.10;;;4.50;;
76818;SDS011;65772;51.096;17.006;2023-03-31T05:48:57;8.70;;;4.50;;
76818;SDS011;65772;51.096;17.006;2023-03-31T05:51:29;9.20;;;4.80;;
76818;SDS011;65772;51.096;17.006;2023-03-31T05:53:59;8.10;;;4.50;;
76818;SDS011;65772;51.096;17.006;2023-03-31T05:56:30;9.70;;;4.80;;
76818;SDS011;65772;51.096;17.006;2023-03-31T05:59:00;10.30;;;4.90;;
76818;SDS011;65772;51.096;17.006;2023-03-31T06:01:32;9.40;;;4.80;;
76818;SDS011;65772;51.096;17.006;2023-03-31T06:04:02;9.90;;;4.50;;
76818;SDS011;65772;51.096;17.006;2023-03-31T06:06:33;12.30;;;5.30;;
76818;SDS011;65772;51.096;17.006;2023-03-31T06:09:04;10.80;;;5.40;;
76818;SDS011;65772;51.096;17.006;2023-03-31T06:11:35;9.30;;;5.20;;
76818;SDS011;65772;51.096;17.006;2023-03-31T06:14:06;11.40;;;4.90;;
76818;SDS011;65772;51.096;17.006;2023-03-31T06:16:37;9.70;;;4.90;;
76818;SDS011;65772;51.096;17.006;2023-03-31T06:19:08;9.70;;;4.70;;
76818;SDS011;65772;51.096;17.006;2023-03-31T06:21:38;8.70;;;4.50;;
76818;SDS011;65772;51.096;17.006;2023-03-31T06:24:09;9.10;;;5.00;;
76818;SDS011;65772;51.096;17.006;2023-03-31T06:26:40;8.90;;;4.90;;
76818;SDS011;65772;51.096;17.006;2023-03-31T06:29:11;9.60;;;4.50;;
76818;SDS011;65772;51.096;17.006;2023-03-31T06:31:41;8.80;;;4.40;;
76818;SDS011;65772;51.096;17.006;2023-03-31T06:34:13;10.00;;;5.20;;
76818;SDS011;65772;51.096;17.006;2023-03-31T06:36:46;8.60;;;4.70;;
76818;SDS011;65772;51.096;17.006;2023-03-31T06:39:16;10.30;;;5.20;;
76818;SDS011;65772;51.096;17.006;2023-03-31T06:41:46;7.70;;;4.60;;
76818;SDS011;65772;51.096;17.006;2023-03-31T06:44:22;10.40;;;4.90;;
76818;SDS011;65772;51.096;17.006;2023-03-31T06:46:52;7.60;;;4.90;;
76818;SDS011;65772;51.096;17.006;2023-03-31T06:49:23;8.50;;;4.70;;
76818;SDS011;65772;51.096;17.006;2023-03-31T06:51:53;7.30;;;4.30;;
76818;SDS011;65772;51.096;17.006;2023-03-31T06:54:24;7.80;;;4.20;;
76818;SDS011;65772;51.096;17.006;2023-03-31T06:56:54;11.20;;;4.90;;
76818;SDS011;65772;51.096;17.006;2023-03-31T06:59:25;8.90;;;4.40;;
76818;SDS011;65772;51.096;17.006;2023-03-31T07:01:55;6.80;;;4.50;;
76818;SDS011;65772;51.096;17.006;2023-03-31T07:04:26;7.30;;;4.50;;
76818;SDS011;65772;51.096;17.006;2023-03-31T07:06:58;9.10;;;5.20;;
76818;SDS011;65772;51.096;17.006;2023-03-31T07:09:28;10.60;;;6.00;;
76818;SDS011;65772;51.096;17.006;2023-03-31T07:11:59;9.30;;;5.10;;
76818;SDS011;65772;51.096;17.006;2023-03-31T07:14:32;9.60;;;6.00;;
76818;SDS011;65772;51.096;17.006;2023-03-31T07:17:02;9.20;;;5.40;;
76818;SDS011;65772;51.096;17.006;2023-03-31T07:19:33;11.30;;;5.50;;
76818;SDS011;65772;51.096;17.006;2023-03-31T07:22:04;9.70;;;5.30;;
76818;SDS011;65772;51.096;17.006;2023-03-31T07:24:35;10.00;;;5.10;;
76818;SDS011;65772;51.096;17.006;2023-03-31T07:27:06;11.10;;;5.90;;
76818;SDS011;65772;51.096;17.006;2023-03-31T07:29:36;9.60;;;5.30;;
76818;SDS011;65772;51.096;17.006;2023-03-31T07:32:07;9.80;;;5.00;;
76818;SDS011;65772;51.096;17.006;2023-03-31T07:34:38;8.40;;;5.10;;
76818;SDS011;65772;51.096;17.006;2023-03-31T07:37:08;9.10;;;5.20;;
76818;SDS011;65772;51.096;17.006;2023-03-31T07:39:39;8.80;;;5.20;;
76818;SDS011;65772;51.096;17.006;2023-03-31T07:42:09;8.90;;;5.20;;
76818;SDS011;65772;51.096;17.006;2023-03-31T07:44:40;11.00;;;5.10;;
76818;SDS011;65772;51.096;17.006;2023-03-31T07:47:11;9.30;;;5.30;;
76818;SDS011;65772;51.096;17.006;2023-03-31T07:49:41;9.10;;;5.70;;
76818;SDS011;65772;51.096;17.006;2023-03-31T07:52:12;9.20;;;5.60;;
76818;SDS011;65772;51.096;17.006;2023-03-31T07:54:43;9.60;;;5.60;;
76818;SDS011;65772;51.096;17.006;2023-03-31T07:57:13;11.40;;;5.60;;
76818;SDS011;65772;51.096;17.006;2023-03-31T07:59:46;10.80;;;5.70;;
76818;SDS011;65772;51.096;17.006;2023-03-31T08:02:17;9.20;;;5.30;;
76818;SDS011;65772;51.096;17.006;2023-03-31T08:04:48;10.50;;;5.90;;
76818;SDS011;65772;51.096;17.006;2023-03-31T08:07:18;12.00;;;6.50;;
76818;SDS011;65772;51.096;17.006;2023-03-31T08:09:49;9.30;;;5.70;;
76818;SDS011;65772;51.096;17.006;2023-03-31T08:12:19;10.90;;;6.30;;
76818;SDS011;65772;51.096;17.006;2023-03-31T08:14:50;10.70;;;6.00;;
76818;SDS011;65772;51.096;17.006;2023-03-31T08:17:20;11.50;;;6.20;;
76818;SDS011;65772;51.096;17.006;2023-03-31T08:19:51;10.70;;;6.50;;
76818;SDS011;65772;51.096;17.006;2023-03-31T08:22:22;11.90;;;6.80;;
76818;SDS011;65772;51.096;17.006;2023-03-31T08:24:53;9.30;;;5.80;;
76818;SDS011;65772;51.096;17.006;2023-03-31T08:27:23;13.00;;;6.10;;
76818;SDS011;65772;51.096;17.006;2023-03-31T08:29:54;12.60;;;8.30;;
76818;SDS011;65772;51.096;17.006;2023-03-31T08:32:25;11.60;;;5.80;;
76818;SDS011;65772;51.096;17.006;2023-03-31T08:34:56;9.40;;;5.30;;
76818;SDS011;65772;51.096;17.006;2023-03-31T08:37:27;7.40;;;4.60;;
76818;SDS011;65772;51.096;17.006;2023-03-31T08:39:58;8.50;;;5.10;;
76818;SDS011;65772;51.096;17.006;2023-03-31T08:42:34;9.70;;;4.60;;
76818;SDS011;65772;51.096;17.006;2023-03-31T08:45:10;8.80;;;4.40;;
76818;SDS011;65772;51.096;17.006;2023-03-31T08:47:49;6.40;;;3.70;;
76818;SDS011;65772;51.096;17.006;2023-03-31T08:50:25;7.20;;;3.90;;
76818;SDS011;65772;51.096;17.006;2023-03-31T08:53:00;6.30;;;3.90;;
76818;SDS011;65772;51.096;17.006;2023-03-31T08:55:34;9.00;;;4.40;;
76818;SDS011;65772;51.096;17.006;2023-03-31T08:58:14;10.20;;;4.20;;
76818;SDS011;65772;51.096;17.006;2023-03-31T09:00:56;7.60;;;4.60;;
76818;SDS011;65772;51.096;17.006;2023-03-31T09:03:36;6.90;;;4.10;;
76818;SDS011;65772;51.096;17.006;2023-03-31T09:06:15;6.90;;;4.30;;
76818;SDS011;65772;51.096;17.006;2023-03-31T09:08:50;10.70;;;4.60;;
76818;SDS011;65772;51.096;17.006;2023-03-31T09:11:25;8.00;;;4.30;;
76818;SDS011;65772;51.096;17.006;2023-03-31T09:14:06;8.40;;;5.10;;
76818;SDS011;65772;51.096;17.006;2023-03-31T09:16:47;10.20;;;4.30;;
76818;SDS011;65772;51.096;17.006;2023-03-31T09:19:28;6.20;;;3.60;;
76818;SDS011;65772;51.096;17.006;2023-03-31T09:22:05;10.20;;;4.20;;
76818;SDS011;65772;51.096;17.006;2023-03-31T09:27:17;6.50;;;3.40;;
76818;SDS011;65772;51.096;17.006;2023-03-31T09:29:50;8.60;;;3.90;;
76818;SDS011;65772;51.096;17.006;2023-03-31T09:32:24;6.40;;;3.30;;
76818;SDS011;65772;51.096;17.006;2023-03-31T09:34:58;7.80;;;3.40;;
76818;SDS011;65772;51.096;17.006;2023-03-31T09:37:40;8.80;;;3.40;;
76818;SDS011;65772;51.096;17.006;2023-03-31T09:40:14;6.50;;;3.60;;
76818;SDS011;65772;51.096;17.006;2023-03-31T09:42:47;6.20;;;3.60;;
76818;SDS011;65772;51.096;17.006;2023-03-31T09:45:21;8.10;;;3.50;;
76818;SDS011;65772;51.096;17.006;2023-03-31T09:47:53;7.80;;;3.20;;
76818;SDS011;65772;51.096;17.006;2023-03-31T09:50:26;6.30;;;3.20;;
76818;SDS011;65772;51.096;17.006;2023-03-31T09:52:58;7.40;;;3.80;;
76818;SDS011;65772;51.096;17.006;2023-03-31T09:55:35;8.40;;;3.50;;
76818;SDS011;65772;51.096;17.006;2023-03-31T09:58:13;8.20;;;3.80;;
76818;SDS011;65772;51.096;17.006;2023-03-31T10:00:54;6.80;;;3.20;;
76818;SDS011;65772;51.096;17.006;2023-03-31T10:03:27;7.90;;;3.70;;
76818;SDS011;65772;51.096;17.006;2023-03-31T10:06:07;8.10;;;3.90;;
76818;SDS011;65772;51.096;17.006;2023-03-31T10:08:39;8.70;;;3.70;;
76818;SDS011;65772;51.096;17.006;2023-03-31T10:11:15;10.10;;;4.00;;
76818;SDS011;65772;51.096;17.006;2023-03-31T10:13:47;10.90;;;3.80;;
76818;SDS011;65772;51.096;17.006;2023-03-31T10:16:29;7.00;;;3.50;;
76818;SDS011;65772;51.096;17.006;2023-03-31T10:19:12;10.10;;;3.70;;
76818;SDS011;65772;51.096;17.006;2023-03-31T10:21:47;8.40;;;3.60;;
76818;SDS011;65772;51.096;17.006;2023-03-31T10:24:23;7.80;;;3.50;;
76818;SDS011;65772;51.096;17.006;2023-03-31T10:26:56;6.40;;;2.90;;
76818;SDS011;65772;51.096;17.006;2023-03-31T10:29:28;5.60;;;2.90;;
76818;SDS011;65772;51.096;17.006;2023-03-31T10:32:07;6.50;;;3.00;;
76818;SDS011;65772;51.096;17.006;2023-03-31T10:34:42;6.50;;;2.70;;
76818;SDS011;65772;51.096;17.006;2023-03-31T10:37:13;8.70;;;2.90;;
76818;SDS011;65772;51.096;17.006;2023-03-31T10:39:47;8.10;;;3.00;;
76818;SDS011;65772;51.096;17.006;2023-03-31T10:42:24;7.00;;;2.50;;
76818;SDS011;65772;51.096;17.006;2023-03-31T10:48:00;6.10;;;2.60;;
76818;SDS011;65772;51.096;17.006;2023-03-31T10:50:32;5.90;;;2.60;;
76818;SDS011;65772;51.096;17.006;2023-03-31T10:53:04;4.30;;;2.30;;
76818;SDS011;65772;51.096;17.006;2023-03-31T10:55:41;6.10;;;2.90;;
76818;SDS011;65772;51.096;17.006;2023-03-31T10:58:24;7.40;;;2.80;;
76818;SDS011;65772;51.096;17.006;2023-03-31T11:01:05;6.70;;;2.70;;
76818;SDS011;65772;51.096;17.006;2023-03-31T11:03:58;7.10;;;2.70;;
76818;SDS011;65772;51.096;17.006;2023-03-31T11:06:51;6.70;;;3.10;;
76818;SDS011;65772;51.096;17.006;2023-03-31T11:09:38;6.40;;;2.90;;
76818;SDS011;65772;51.096;17.006;2023-03-31T11:14:57;6.50;;;2.30;;
76818;SDS011;65772;51.096;17.006;2023-03-31T11:17:37;7.80;;;2.20;;
76818;SDS011;65772;51.096;17.006;2023-03-31T11:20:23;8.30;;;2.50;;
76818;SDS011;65772;51.096;17.006;2023-03-31T11:23:02;5.60;;;2.30;;
76818;SDS011;65772;51.096;17.006;2023-03-31T11:25:45;5.70;;;2.20;;
76818;SDS011;65772;51.096;17.006;2023-03-31T11:28:29;6.40;;;2.40;;
76818;SDS011;65772;51.096;17.006;2023-03-31T11:31:13;5.30;;;2.70;;
76818;SDS011;65772;51.096;17.006;2023-03-31T11:33:58;9.10;;;3.00;;
76818;SDS011;65772;51.096;17.006;2023-03-31T11:36:52;6.30;;;2.60;;
76818;SDS011;65772;51.096;17.006;2023-03-31T11:39:40;6.00;;;2.20;;
76818;SDS011;65772;51.096;17.006;2023-03-31T11:42:20;7.60;;;2.60;;
76818;SDS011;65772;51.096;17.006;2023-03-31T11:44:55;4.70;;;2.40;;
76818;SDS011;65772;51.096;17.006;2023-03-31T11:47:31;6.60;;;2.30;;
76818;SDS011;65772;51.096;17.006;2023-03-31T11:50:08;6.10;;;2.30;;
76818;SDS011;65772;51.096;17.006;2023-03-31T11:52:43;5.90;;;2.20;;
76818;SDS011;65772;51.096;17.006;2023-03-31T11:55:22;8.10;;;2.60;;
76818;SDS011;65772;51.096;17.006;2023-03-31T11:57:58;6.80;;;2.30;;
76818;SDS011;65772;51.096;17.006;2023-03-31T12:00:33;8.80;;;2.90;;
76818;SDS011;65772;51.096;17.006;2023-03-31T12:03:10;5.70;;;2.30;;
76818;SDS011;65772;51.096;17.006;2023-03-31T12:05:47;4.60;;;2.30;;
76818;SDS011;65772;51.096;17.006;2023-03-31T12:08:23;6.70;;;2.10;;
76818;SDS011;65772;51.096;17.006;2023-03-31T12:10:59;7.50;;;2.20;;
76818;SDS011;65772;51.096;17.006;2023-03-31T12:13:37;8.60;;;2.50;;
76818;SDS011;65772;51.096;17.006;2023-03-31T12:18:48;6.30;;;2.10;;
76818;SDS011;65772;51.096;17.006;2023-03-31T12:21:25;6.50;;;2.10;;
76818;SDS011;65772;51.096;17.006;2023-03-31T12:23:57;5.30;;;2.20;;
76818;SDS011;65772;51.096;17.006;2023-03-31T12:26:33;8.80;;;2.10;;
76818;SDS011;65772;51.096;17.006;2023-03-31T12:29:11;7.50;;;1.70;;
76818;SDS011;65772;51.096;17.006;2023-03-31T12:31:53;4.60;;;1.70;;
76818;SDS011;65772;51.096;17.006;2023-03-31T12:34:27;5.10;;;1.70;;
76818;SDS011;65772;51.096;17.006;2023-03-31T12:37:12;6.20;;;2.10;;
76818;SDS011;65772;51.096;17.006;2023-03-31T12:40:06;6.50;;;2.40;;
76818;SDS011;65772;51.096;17.006;2023-03-31T12:42:51;6.70;;;1.90;;
76818;SDS011;65772;51.096;17.006;2023-03-31T12:45:37;6.40;;;2.30;;
76818;SDS011;65772;51.096;17.006;2023-03-31T12:51:19;5.20;;;2.20;;
76818;SDS011;65772;51.096;17.006;2023-03-31T12:54:07;4.10;;;1.90;;
76818;SDS011;65772;51.096;17.006;2023-03-31T12:57:02;6.80;;;2.30;;
76818;SDS011;65772;51.096;17.006;2023-03-31T12:59:40;6.50;;;2.40;;
76818;SDS011;65772;51.096;17.006;2023-03-31T13:02:18;6.60;;;2.20;;
76818;SDS011;65772;51.096;17.006;2023-03-31T13:04:52;6.70;;;2.30;;
76818;SDS011;65772;51.096;17.006;2023-03-31T13:10:26;5.90;;;2.20;;
76818;SDS011;65772;51.096;17.006;2023-03-31T13:13:03;6.10;;;2.40;;
76818;SDS011;65772;51.096;17.006;2023-03-31T13:15:40;6.70;;;2.60;;
76818;SDS011;65772;51.096;17.006;2023-03-31T13:18:20;9.20;;;2.60;;
76818;SDS011;65772;51.096;17.006;2023-03-31T13:20:58;7.10;;;2.70;;
76818;SDS011;65772;51.096;17.006;2023-03-31T13:23:33;6.10;;;2.70;;
76818;SDS011;65772;51.096;17.006;2023-03-31T13:26:04;9.80;;;3.20;;
76818;SDS011;65772;51.096;17.006;2023-03-31T13:34:54;7.20;;;3.10;;
76818;SDS011;65772;51.096;17.006;2023-03-31T13:37:34;10.20;;;3.80;;
76818;SDS011;65772;51.096;17.006;2023-03-31T13:46:29;7.40;;;2.90;;
76818;SDS011;65772;51.096;17.006;2023-03-31T13:49:16;6.60;;;2.60;;
76818;SDS011;65772;51.096;17.006;2023-03-31T13:52:08;7.30;;;2.70;;
76818;SDS011;65772;51.096;17.006;2023-03-31T13:54:51;10.30;;;3.00;;
76818;SDS011;65772;51.096;17.006;2023-03-31T13:57:51;8.50;;;2.70;;
76818;SDS011;65772;51.096;17.006;2023-03-31T14:01:03;9.30;;;3.20;;
76818;SDS011;65772;51.096;17.006;2023-03-31T14:03:59;8.10;;;2.90;;
76818;SDS011;65772;51.096;17.006;2023-03-31T14:06:42;7.90;;;2.40;;
76818;SDS011;65772;51.096;17.006;2023-03-31T14:09:18;7.60;;;2.60;;
76818;SDS011;65772;51.096;17.006;2023-03-31T14:11:53;11.40;;;3.60;;
76818;SDS011;65772;51.096;17.006;2023-03-31T14:14:26;6.90;;;3.70;;
76818;SDS011;65772;51.096;17.006;2023-03-31T14:16:58;11.10;;;3.70;;
76818;SDS011;65772;51.096;17.006;2023-03-31T14:19:52;9.10;;;3.30;;
76818;SDS011;65772;51.096;17.006;2023-03-31T14:22:40;7.20;;;2.70;;
76818;SDS011;65772;51.096;17.006;2023-03-31T14:25:31;8.90;;;2.80;;
76818;SDS011;65772;51.096;17.006;2023-03-31T14:28:16;7.50;;;3.60;;
76818;SDS011;65772;51.096;17.006;2023-03-31T14:31:08;11.40;;;4.20;;
76818;SDS011;65772;51.096;17.006;2023-03-31T14:33:50;9.10;;;4.00;;
76818;SDS011;65772;51.096;17.006;2023-03-31T14:36:39;6.80;;;3.40;;
76818;SDS011;65772;51.096;17.006;2023-03-31T14:39:17;9.40;;;4.30;;
76818;SDS011;65772;51.096;17.006;2023-03-31T14:41:52;8.70;;;3.60;;
76818;SDS011;65772;51.096;17.006;2023-03-31T14:44:24;9.40;;;4.20;;
76818;SDS011;65772;51.096;17.006;2023-03-31T14:49:26;8.50;;;3.70;;
76818;SDS011;65772;51.096;17.006;2023-03-31T14:52:04;8.30;;;3.70;;
76818;SDS011;65772;51.096;17.006;2023-03-31T14:54:45;5.60;;;3.30;;
76818;SDS011;65772;51.096;17.006;2023-03-31T14:57:17;8.00;;;3.50;;
76818;SDS011;65772;51.096;17.006;2023-03-31T14:59:54;7.80;;;3.70;;
76818;SDS011;65772;51.096;17.006;2023-03-31T15:02:29;6.10;;;3.20;;
76818;SDS011;65772;51.096;17.006;2023-03-31T15:05:03;7.40;;;3.70;;
76818;SDS011;65772;51.096;17.006;2023-03-31T15:07:36;9.30;;;3.70;;
76818;SDS011;65772;51.096;17.006;2023-03-31T15:10:13;8.60;;;3.20;;
76818;SDS011;65772;51.096;17.006;2023-03-31T15:12:48;7.80;;;3.40;;
76818;SDS011;65772;51.096;17.006;2023-03-31T15:15:19;7.70;;;3.60;;
76818;SDS011;65772;51.096;17.006;2023-03-31T15:17:51;6.70;;;3.10;;
76818;SDS011;65772;51.096;17.006;2023-03-31T15:20:26;9.20;;;3.90;;
76818;SDS011;65772;51.096;17.006;2023-03-31T15:23:02;8.10;;;3.20;;
76818;SDS011;65772;51.096;17.006;2023-03-31T15:25:52;9.50;;;3.20;;
76818;SDS011;65772;51.096;17.006;2023-03-31T15:28:26;9.20;;;2.70;;
76818;SDS011;65772;51.096;17.006;2023-03-31T15:31:02;6.60;;;2.80;;
76818;SDS011;65772;51.096;17.006;2023-03-31T15:33:38;5.50;;;2.60;;
76818;SDS011;65772;51.096;17.006;2023-03-31T15:36:09;6.90;;;2.70;;
76818;SDS011;65772;51.096;17.006;2023-03-31T15:38:41;4.60;;;2.40;;
76818;SDS011;65772;51.096;17.006;2023-03-31T15:41:13;5.90;;;2.50;;
76818;SDS011;65772;51.096;17.006;2023-03-31T15:43:46;5.90;;;2.20;;
76818;SDS011;65772;51.096;17.006;2023-03-31T15:46:19;6.00;;;2.60;;
76818;SDS011;65772;51.096;17.006;2023-03-31T15:49:18;5.40;;;2.50;;
76818;SDS011;65772;51.096;17.006;2023-03-31T15:51:51;5.30;;;2.20;;
76818;SDS011;65772;51.096;17.006;2023-03-31T15:54:33;5.70;;;2.60;;
76818;SDS011;65772;51.096;17.006;2023-03-31T15:57:08;7.60;;;3.00;;
76818;SDS011;65772;51.096;17.006;2023-03-31T15:59:46;5.50;;;2.70;;
76818;SDS011;65772;51.096;17.006;2023-03-31T16:02:24;6.30;;;3.00;;
76818;SDS011;65772;51.096;17.006;2023-03-31T16:05:03;7.20;;;3.30;;